sensor_id;sensor_type;location;lat;lon;timestamp;pressure;altitude;pressure_sealevel;temperature;humidity
67015;BME280;1033;52.560;13.374;2024-03-29T00:01:36;99206.28;;;9.29;77.03
67015;BME280;1033;52.560;13.374;2024-03-29T00:04:03;99210.13;;;9.21;77.73
67015;BME280;1033;52.560;13.374;2024-03-29T00:06:31;99213.09;;;9.20;78.15
67015;BME280;1033;52.560;13.374;2024-03-29T00:08:58;99212.72;;;9.16;78.43
67015;BME280;1033;52.560;13.374;2024-03-29T00:11:24;99227.16;;;9.10;78.97
67015;BME280;1033;52.560;13.374;2024-03-29T00:13:51;99223.97;;;9.13;79.25
67015;BME280;1033;52.560;13.374;2024-03-29T00:16:19;99242.53;;;9.33;78.84
67015;BME280;1033;52.560;13.374;2024-03-29T00:18:46;99242.53;;;9.44;79.70
67015;BME280;1033;52.560;13.374;2024-03-29T00:21:14;99245.13;;;9.51;79.78
67015;BME280;1033;52.560;13.374;2024-03-29T00:23:41;99252.28;;;9.57;79.76
67015;BME280;1033;52.560;13.374;2024-03-29T00:26:08;99249.69;;;9.50;80.36
67015;BME280;1033;52.560;13.374;2024-03-29T00:28:35;99253.13;;;9.57;79.83
67015;BME280;1033;52.560;13.374;2024-03-29T00:31:02;99255.22;;;9.67;78.91
67015;BME280;1033;52.560;13.374;2024-03-29T00:33:30;99250.03;;;9.66;79.08
67015;BME280;1033;52.560;13.374;2024-03-29T00:35:57;99253.22;;;9.63;78.79
67015;BME280;1033;52.560;13.374;2024-03-29T00:38:24;99246.53;;;9.65;78.48
67015;BME280;1033;52.560;13.374;2024-03-29T00:40:51;99247.13;;;9.67;77.93
67015;BME280;1033;52.560;13.374;2024-03-29T00:43:18;99259.66;;;9.73;77.74
67015;BME280;1033;52.560;13.374;2024-03-29T00:45:45;99261.19;;;9.69;77.45
67015;BME280;1033;52.560;13.374;2024-03-29T00:48:12;99266.47;;;9.64;76.81
67015;BME280;1033;52.560;13.374;2024-03-29T00:50:40;99278.94;;;9.77;76.93
67015;BME280;1033;52.560;13.374;2024-03-29T00:53:07;99267.19;;;9.71;76.33
67015;BME280;1033;52.560;13.374;2024-03-29T00:55:34;99279.16;;;9.52;76.87
67015;BME280;1033;52.560;13.374;2024-03-29T00:58:01;99276.69;;;9.39;77.74
67015;BME280;1033;52.560;13.374;2024-03-29T01:00:28;99268.69;;;9.21;78.88
67015;BME280;1033;52.560;13.374;2024-03-29T01:02:55;99277.00;;;9.07;80.57
67015;BME280;1033;52.560;13.374;2024-03-29T01:05:22;99277.50;;;8.86;82.13
67015;BME280;1033;52.560;13.374;2024-03-29T01:07:50;99272.94;;;8.75;83.87
67015;BME280;1033;52.560;13.374;2024-03-29T01:10:17;99270.94;;;8.52;85.79
67015;BME280;1033;52.560;13.374;2024-03-29T01:12:44;99272.16;;;8.38;87.53
67015;BME280;1033;52.560;13.374;2024-03-29T01:15:12;99265.00;;;8.32;88.96
67015;BME280;1033;52.560;13.374;2024-03-29T01:17:39;99266.56;;;8.21;90.21
67015;BME280;1033;52.560;13.374;2024-03-29T01:20:06;99262.28;;;8.14;91.32
67015;BME280;1033;52.560;13.374;2024-03-29T01:22:33;99270.00;;;8.10;91.78
67015;BME280;1033;52.560;13.374;2024-03-29T01:25:01;99269.34;;;7.97;93.29
67015;BME280;1033;52.560;13.374;2024-03-29T01:27:28;99273.75;;;7.91;93.82
67015;BME280;1033;52.560;13.374;2024-03-29T01:29:55;99270.91;;;7.86;94.69
67015;BME280;1033;52.560;13.374;2024-03-29T01:32:21;99271.28;;;7.90;94.41
67015;BME280;1033;52.560;13.374;2024-03-29T01:34:48;99268.22;;;7.68;95.50
67015;BME280;1033;52.560;13.374;2024-03-29T01:37:15;99264.59;;;7.56;96.87
67015;BME280;1033;52.560;13.374;2024-03-29T01:39:42;99276.22;;;7.74;96.73
67015;BME280;1033;52.560;13.374;2024-03-29T01:42:10;99277.38;;;7.60;97.28
67015;BME280;1033;52.560;13.374;2024-03-29T01:44:37;99271.25;;;7.53;98.21
67015;BME280;1033;52.560;13.374;2024-03-29T01:47:05;99273.50;;;7.56;98.42
67015;BME280;1033;52.560;13.374;2024-03-29T01:49:33;99278.34;;;7.48;98.81
67015;BME280;1033;52.560;13.374;2024-03-29T01:52:01;99281.75;;;7.36;99.86
67015;BME280;1033;52.560;13.374;2024-03-29T01:54:30;99283.03;;;7.34;100.00
67015;BME280;1033;52.560;13.374;2024-03-29T01:56:58;99281.84;;;7.23;100.00
67015;BME280;1033;52.560;13.374;2024-03-29T01:59:29;99286.38;;;7.29;100.00
67015;BME280;1033;52.560;13.374;2024-03-29T02:01:57;99282.91;;;7.22;100.00
67015;BME280;1033;52.560;13.374;2024-03-29T02:04:27;99281.09;;;7.16;100.00
67015;BME280;1033;52.560;13.374;2024-03-29T02:06:55;99290.22;;;7.15;100.00
67015;BME280;1033;52.560;13.374;2024-03-29T02:09:23;99287.94;;;7.12;100.00
67015;BME280;1033;52.560;13.374;2024-03-29T02:11:51;99288.94;;;7.18;100.00
67015;BME280;1033;52.560;13.374;2024-03-29T02:14:19;99287.34;;;7.10;100.00
67015;BME280;1033;52.560;13.374;2024-03-29T02:16:48;99293.31;;;7.12;100.00
67015;BME280;1033;52.560;13.374;2024-03-29T02:19:16;99292.72;;;7.10;100.00
67015;BME280;1033;52.560;13.374;2024-03-29T02:21:46;99287.94;;;7.12;100.00
67015;BME280;1033;52.560;13.374;2024-03-29T02:24:16;99280.28;;;7.16;99.51
67015;BME280;1033;52.560;13.374;2024-03-29T02:26:44;99284.22;;;7.13;99.28
67015;BME280;1033;52.560;13.374;2024-03-29T02:29:13;99285.25;;;7.12;99.17
67015;BME280;1033;52.560;13.374;2024-03-29T02:31:41;99291.88;;;7.16;98.76
67015;BME280;1033;52.560;13.374;2024-03-29T02:34:08;99296.47;;;7.09;98.58
67015;BME280;1033;52.560;13.374;2024-03-29T02:36:36;99298.22;;;6.97;99.15
67015;BME280;1033;52.560;13.374;2024-03-29T02:39:04;99291.59;;;6.93;99.66
67015;BME280;1033;52.560;13.374;2024-03-29T02:41:33;99299.84;;;6.98;99.68
67015;BME280;1033;52.560;13.374;2024-03-29T02:44:01;99301.50;;;6.99;98.97
67015;BME280;1033;52.560;13.374;2024-03-29T02:46:28;99304.38;;;6.97;98.61
67015;BME280;1033;52.560;13.374;2024-03-29T02:48:56;99312.69;;;6.96;98.08
67015;BME280;1033;52.560;13.374;2024-03-29T02:51:22;99312.06;;;6.94;98.77
67015;BME280;1033;52.560;13.374;2024-03-29T02:53:50;99301.81;;;6.84;99.25
67015;BME280;1033;52.560;13.374;2024-03-29T02:56:17;99295.59;;;6.84;98.62
67015;BME280;1033;52.560;13.374;2024-03-29T02:58:49;99305.31;;;6.85;98.55
67015;BME280;1033;52.560;13.374;2024-03-29T03:01:15;99306.13;;;6.85;98.73
67015;BME280;1033;52.560;13.374;2024-03-29T03:03:43;99303.84;;;6.89;98.24
67015;BME280;1033;52.560;13.374;2024-03-29T03:06:10;99308.72;;;6.98;97.87
67015;BME280;1033;52.560;13.374;2024-03-29T03:08:37;99309.78;;;6.97;97.75
67015;BME280;1033;52.560;13.374;2024-03-29T03:11:23;99326.44;;;6.81;98.01
67015;BME280;1033;52.560;13.374;2024-03-29T03:13:52;99326.03;;;6.78;97.99
67015;BME280;1033;52.560;13.374;2024-03-29T03:16:19;99333.22;;;6.84;98.11
67015;BME280;1033;52.560;13.374;2024-03-29T03:18:49;99335.56;;;6.74;98.08
67015;BME280;1033;52.560;13.374;2024-03-29T03:21:16;99329.34;;;6.73;97.74
67015;BME280;1033;52.560;13.374;2024-03-29T03:23:44;99329.41;;;6.67;98.89
67015;BME280;1033;52.560;13.374;2024-03-29T03:26:11;99325.25;;;6.71;97.54
67015;BME280;1033;52.560;13.374;2024-03-29T03:28:38;99330.66;;;6.64;97.81
67015;BME280;1033;52.560;13.374;2024-03-29T03:31:06;99334.16;;;6.65;97.61
67015;BME280;1033;52.560;13.374;2024-03-29T03:33:35;99345.53;;;6.67;97.43
67015;BME280;1033;52.560;13.374;2024-03-29T03:36:03;99342.84;;;6.67;97.20
67015;BME280;1033;52.560;13.374;2024-03-29T03:38:30;99342.31;;;6.51;97.67
67015;BME280;1033;52.560;13.374;2024-03-29T03:40:59;99343.34;;;6.44;97.96
67015;BME280;1033;52.560;13.374;2024-03-29T03:43:26;99351.41;;;6.50;98.19
67015;BME280;1033;52.560;13.374;2024-03-29T03:45:59;99356.88;;;6.69;96.24
67015;BME280;1033;52.560;13.374;2024-03-29T03:48:27;99356.03;;;6.75;95.38
67015;BME280;1033;52.560;13.374;2024-03-29T03:50:55;99341.78;;;6.74;95.65
67015;BME280;1033;52.560;13.374;2024-03-29T03:53:22;99342.63;;;6.68;94.74
67015;BME280;1033;52.560;13.374;2024-03-29T03:55:50;99340.53;;;6.77;94.15
67015;BME280;1033;52.560;13.374;2024-03-29T03:58:17;99338.66;;;6.77;93.50
67015;BME280;1033;52.560;13.374;2024-03-29T04:00:44;99325.25;;;6.71;93.19
67015;BME280;1033;52.560;13.374;2024-03-29T04:03:11;99321.53;;;6.72;93.23
67015;BME280;1033;52.560;13.374;2024-03-29T04:05:40;99317.88;;;6.60;93.56
67015;BME280;1033;52.560;13.374;2024-03-29T04:08:07;99319.59;;;6.47;95.14
67015;BME280;1033;52.560;13.374;2024-03-29T04:10:38;99319.00;;;6.39;95.58
67015;BME280;1033;52.560;13.374;2024-03-29T04:13:05;99318.38;;;6.43;96.38
67015;BME280;1033;52.560;13.374;2024-03-29T04:15:33;99328.50;;;6.35;95.86
67015;BME280;1033;52.560;13.374;2024-03-29T04:18:00;99323.78;;;6.30;96.54
67015;BME280;1033;52.560;13.374;2024-03-29T04:20:27;99324.59;;;6.37;96.12
67015;BME280;1033;52.560;13.374;2024-03-29T04:22:56;99322.09;;;6.42;95.39
67015;BME280;1033;52.560;13.374;2024-03-29T04:25:23;99334.91;;;6.40;95.45
67015;BME280;1033;52.560;13.374;2024-03-29T04:27:50;99322.03;;;6.49;95.06
67015;BME280;1033;52.560;13.374;2024-03-29T04:30:18;99325.81;;;6.41;94.81
67015;BME280;1033;52.560;13.374;2024-03-29T04:32:44;99328.00;;;6.58;94.19
67015;BME280;1033;52.560;13.374;2024-03-29T04:35:12;99327.22;;;6.50;94.17
67015;BME280;1033;52.560;13.374;2024-03-29T04:37:39;99318.19;;;6.38;94.84
67015;BME280;1033;52.560;13.374;2024-03-29T04:40:09;99323.75;;;6.37;95.31
67015;BME280;1033;52.560;13.374;2024-03-29T04:42:38;99326.38;;;6.50;94.25
67015;BME280;1033;52.560;13.374;2024-03-29T04:45:06;99322.47;;;6.52;93.75
67015;BME280;1033;52.560;13.374;2024-03-29T04:47:34;99329.88;;;6.57;93.61
67015;BME280;1033;52.560;13.374;2024-03-29T04:50:01;99331.53;;;6.58;93.83
67015;BME280;1033;52.560;13.374;2024-03-29T04:52:29;99322.81;;;6.63;93.19
67015;BME280;1033;52.560;13.374;2024-03-29T04:54:57;99313.09;;;6.62;92.69
67015;BME280;1033;52.560;13.374;2024-03-29T04:57:26;99324.44;;;6.64;92.21
67015;BME280;1033;52.560;13.374;2024-03-29T04:59:54;99324.06;;;6.60;92.22
67015;BME280;1033;52.560;13.374;2024-03-29T05:02:21;99314.97;;;6.61;92.32
67015;BME280;1033;52.560;13.374;2024-03-29T05:04:49;99311.78;;;6.77;91.05
67015;BME280;1033;52.560;13.374;2024-03-29T05:07:17;99314.84;;;6.81;90.36
67015;BME280;1033;52.560;13.374;2024-03-29T05:09:45;99311.53;;;6.79;90.43
67015;BME280;1033;52.560;13.374;2024-03-29T05:12:12;99333.22;;;6.84;89.88
67015;BME280;1033;52.560;13.374;2024-03-29T05:14:42;99345.03;;;6.83;89.43
67015;BME280;1033;52.560;13.374;2024-03-29T05:17:09;99325.56;;;6.87;89.63
67015;BME280;1033;52.560;13.374;2024-03-29T05:19:40;99339.19;;;6.92;88.77
67015;BME280;1033;52.560;13.374;2024-03-29T05:22:08;99346.44;;;6.92;88.91
67015;BME280;1033;52.560;13.374;2024-03-29T05:24:35;99348.69;;;6.95;88.95
67015;BME280;1033;52.560;13.374;2024-03-29T05:27:03;99354.69;;;6.97;89.05
67015;BME280;1033;52.560;13.374;2024-03-29T05:29:31;99348.56;;;7.15;88.21
67015;BME280;1033;52.560;13.374;2024-03-29T05:32:00;99355.13;;;7.25;87.07
67015;BME280;1033;52.560;13.374;2024-03-29T05:34:28;99348.09;;;7.24;85.99
67015;BME280;1033;52.560;13.374;2024-03-29T05:36:56;99366.28;;;7.22;87.03
67015;BME280;1033;52.560;13.374;2024-03-29T05:39:24;99365.16;;;7.36;86.55
67015;BME280;1033;52.560;13.374;2024-03-29T05:41:51;99346.72;;;7.40;85.63
67015;BME280;1033;52.560;13.374;2024-03-29T05:44:20;99331.66;;;7.32;85.62
67015;BME280;1033;52.560;13.374;2024-03-29T05:46:48;99333.50;;;7.38;85.55
67015;BME280;1033;52.560;13.374;2024-03-29T05:49:17;99336.13;;;7.45;84.72
67015;BME280;1033;52.560;13.374;2024-03-29T05:51:45;99339.78;;;7.51;84.71
67015;BME280;1033;52.560;13.374;2024-03-29T05:54:13;99325.91;;;7.54;84.38
67015;BME280;1033;52.560;13.374;2024-03-29T05:56:41;99338.66;;;7.65;84.10
67015;BME280;1033;52.560;13.374;2024-03-29T05:59:09;99350.13;;;7.78;83.83
67015;BME280;1033;52.560;13.374;2024-03-29T06:01:38;99352.66;;;7.73;82.87
67015;BME280;1033;52.560;13.374;2024-03-29T06:04:06;99343.59;;;7.68;83.32
67015;BME280;1033;52.560;13.374;2024-03-29T06:06:42;99347.19;;;7.80;83.16
67015;BME280;1033;52.560;13.374;2024-03-29T06:09:10;99353.41;;;7.80;82.28
67015;BME280;1033;52.560;13.374;2024-03-29T06:11:38;99350.50;;;8.00;81.02
67015;BME280;1033;52.560;13.374;2024-03-29T06:14:06;99363.09;;;8.06;80.91
67015;BME280;1033;52.560;13.374;2024-03-29T06:16:52;99374.19;;;8.16;80.49
67015;BME280;1033;52.560;13.374;2024-03-29T06:19:37;99372.91;;;8.19;79.51
67015;BME280;1033;52.560;13.374;2024-03-29T06:22:09;99381.50;;;8.34;79.35
67015;BME280;1033;52.560;13.374;2024-03-29T06:24:37;99374.84;;;8.37;78.61
67015;BME280;1033;52.560;13.374;2024-03-29T06:27:06;99379.19;;;8.56;77.54
67015;BME280;1033;52.560;13.374;2024-03-29T06:29:33;99381.69;;;8.69;77.86
67015;BME280;1033;52.560;13.374;2024-03-29T06:32:01;99393.69;;;8.73;76.31
67015;BME280;1033;52.560;13.374;2024-03-29T06:34:30;99389.63;;;8.82;75.49
67015;BME280;1033;52.560;13.374;2024-03-29T06:36:58;99386.78;;;8.77;75.66
67015;BME280;1033;52.560;13.374;2024-03-29T06:39:27;99391.28;;;8.83;76.12
67015;BME280;1033;52.560;13.374;2024-03-29T06:41:55;99402.41;;;9.05;74.28
67015;BME280;1033;52.560;13.374;2024-03-29T06:44:23;99407.13;;;9.09;73.86
67015;BME280;1033;52.560;13.374;2024-03-29T06:46:51;99403.34;;;9.10;73.64
67015;BME280;1033;52.560;13.374;2024-03-29T06:49:19;99408.25;;;9.32;72.20
67015;BME280;1033;52.560;13.374;2024-03-29T06:51:47;99423.19;;;9.34;70.92
67015;BME280;1033;52.560;13.374;2024-03-29T06:54:15;99421.69;;;9.50;71.42
67015;BME280;1033;52.560;13.374;2024-03-29T06:56:44;99416.69;;;9.88;69.55
67015;BME280;1033;52.560;13.374;2024-03-29T06:59:11;99427.44;;;10.07;68.64
67015;BME280;1033;52.560;13.374;2024-03-29T07:01:58;99427.44;;;10.18;66.70
67015;BME280;1033;52.560;13.374;2024-03-29T07:04:26;99436.22;;;10.14;66.10
67015;BME280;1033;52.560;13.374;2024-03-29T07:06:55;99429.16;;;10.13;65.63
67015;BME280;1033;52.560;13.374;2024-03-29T07:09:23;99419.31;;;10.07;65.86
67015;BME280;1033;52.560;13.374;2024-03-29T07:11:53;99412.28;;;10.29;66.03
67015;BME280;1033;52.560;13.374;2024-03-29T07:14:21;99413.47;;;10.44;65.04
67015;BME280;1033;52.560;13.374;2024-03-29T07:16:49;99421.69;;;10.50;64.25
67015;BME280;1033;52.560;13.374;2024-03-29T07:19:17;99444.47;;;10.54;62.97
67015;BME280;1033;52.560;13.374;2024-03-29T07:21:45;99455.16;;;10.60;63.30
67015;BME280;1033;52.560;13.374;2024-03-29T07:24:13;99458.47;;;10.51;63.53
67015;BME280;1033;52.560;13.374;2024-03-29T07:26:41;99472.84;;;10.39;63.42
67015;BME280;1033;52.560;13.374;2024-03-29T07:29:10;99464.59;;;10.58;63.47
67015;BME280;1033;52.560;13.374;2024-03-29T07:31:38;99472.34;;;10.54;62.41
67015;BME280;1033;52.560;13.374;2024-03-29T07:34:06;99470.22;;;10.56;63.04
67015;BME280;1033;52.560;13.374;2024-03-29T07:36:33;99467.06;;;10.59;62.12
67015;BME280;1033;52.560;13.374;2024-03-29T07:39:02;99468.22;;;10.52;62.06
67015;BME280;1033;52.560;13.374;2024-03-29T07:41:31;99490.22;;;10.67;62.15
67015;BME280;1033;52.560;13.374;2024-03-29T07:43:59;99487.97;;;10.87;61.38
67015;BME280;1033;52.560;13.374;2024-03-29T07:46:32;99485.97;;;10.71;61.96
67015;BME280;1033;52.560;13.374;2024-03-29T07:49:00;99484.69;;;10.73;61.47
67015;BME280;1033;52.560;13.374;2024-03-29T07:51:28;99478.09;;;10.69;61.79
67015;BME280;1033;52.560;13.374;2024-03-29T07:53:56;99478.78;;;10.76;61.42
67015;BME280;1033;52.560;13.374;2024-03-29T07:56:24;99480.19;;;10.90;61.07
67015;BME280;1033;52.560;13.374;2024-03-29T07:58:52;99486.06;;;10.87;60.82
67015;BME280;1033;52.560;13.374;2024-03-29T08:01:21;99504.53;;;11.02;60.48
67015;BME280;1033;52.560;13.374;2024-03-29T08:03:52;99504.88;;;11.06;60.87
67015;BME280;1033;52.560;13.374;2024-03-29T08:06:21;99504.63;;;11.07;60.43
67015;BME280;1033;52.560;13.374;2024-03-29T08:08:49;99517.66;;;11.22;60.08
67015;BME280;1033;52.560;13.374;2024-03-29T08:11:17;99511.53;;;11.26;59.55
67015;BME280;1033;52.560;13.374;2024-03-29T08:13:45;99521.47;;;11.38;59.32
67015;BME280;1033;52.560;13.374;2024-03-29T08:16:13;99523.00;;;11.45;59.36
67015;BME280;1033;52.560;13.374;2024-03-29T08:18:45;99506.94;;;11.27;59.70
67015;BME280;1033;52.560;13.374;2024-03-29T08:21:14;99506.94;;;11.27;60.34
67015;BME280;1033;52.560;13.374;2024-03-29T08:23:42;99520.53;;;11.44;60.68
67015;BME280;1033;52.560;13.374;2024-03-29T08:26:12;99529.81;;;11.48;61.34
67015;BME280;1033;52.560;13.374;2024-03-29T08:28:40;99509.25;;;11.63;61.76
67015;BME280;1033;52.560;13.374;2024-03-29T08:31:08;99507.25;;;11.70;63.73
67015;BME280;1033;52.560;13.374;2024-03-29T08:33:36;99488.00;;;11.72;63.98
67015;BME280;1033;52.560;13.374;2024-03-29T08:36:05;99485.59;;;11.87;63.54
67015;BME280;1033;52.560;13.374;2024-03-29T08:38:36;99461.06;;;11.65;64.61
67015;BME280;1033;52.560;13.374;2024-03-29T08:41:05;99453.56;;;11.84;64.75
67015;BME280;1033;52.560;13.374;2024-03-29T08:43:34;99451.13;;;11.99;64.49
67015;BME280;1033;52.560;13.374;2024-03-29T08:46:02;99454.41;;;12.18;63.68
67015;BME280;1033;52.560;13.374;2024-03-29T08:48:30;99461.84;;;12.44;62.45
67015;BME280;1033;52.560;13.374;2024-03-29T08:50:57;99477.22;;;12.55;62.23
67015;BME280;1033;52.560;13.374;2024-03-29T08:53:25;99485.56;;;12.71;61.20
67015;BME280;1033;52.560;13.374;2024-03-29T08:55:55;99482.41;;;12.57;62.46
67015;BME280;1033;52.560;13.374;2024-03-29T08:58:22;99467.22;;;12.78;62.25
67015;BME280;1033;52.560;13.374;2024-03-29T09:00:54;99468.13;;;13.05;60.54
67015;BME280;1033;52.560;13.374;2024-03-29T09:03:22;99471.13;;;13.25;60.24
67015;BME280;1033;52.560;13.374;2024-03-29T09:05:51;99468.75;;;13.34;59.38
67015;BME280;1033;52.560;13.374;2024-03-29T09:08:19;99474.06;;;13.45;57.90
67015;BME280;1033;52.560;13.374;2024-03-29T09:10:47;99477.50;;;13.63;57.30
67015;BME280;1033;52.560;13.374;2024-03-29T09:13:16;99489.28;;;14.00;55.74
67015;BME280;1033;52.560;13.374;2024-03-29T09:15:44;99485.03;;;14.14;53.51
67015;BME280;1033;52.560;13.374;2024-03-29T09:18:13;99490.03;;;14.22;53.50
67015;BME280;1033;52.560;13.374;2024-03-29T09:20:56;99489.66;;;14.14;53.75
67015;BME280;1033;52.560;13.374;2024-03-29T09:23:26;99484.22;;;14.14;55.08
67015;BME280;1033;52.560;13.374;2024-03-29T09:25:54;99491.84;;;14.44;53.78
67015;BME280;1033;52.560;13.374;2024-03-29T09:28:24;99498.34;;;14.38;54.74
67015;BME280;1033;52.560;13.374;2024-03-29T09:30:58;99494.38;;;14.23;53.66
67015;BME280;1033;52.560;13.374;2024-03-29T09:33:26;99496.41;;;14.38;53.82
67015;BME280;1033;52.560;13.374;2024-03-29T09:35:56;99499.00;;;14.55;52.72
67015;BME280;1033;52.560;13.374;2024-03-29T09:38:25;99500.00;;;14.44;53.02
67015;BME280;1033;52.560;13.374;2024-03-29T09:41:01;99498.97;;;14.50;52.53
67015;BME280;1033;52.560;13.374;2024-03-29T09:43:33;99503.59;;;14.17;52.41
67015;BME280;1033;52.560;13.374;2024-03-29T09:46:01;99505.09;;;14.03;52.60
67015;BME280;1033;52.560;13.374;2024-03-29T09:48:29;99510.94;;;13.90;52.92
67015;BME280;1033;52.560;13.374;2024-03-29T09:51:03;99511.78;;;14.22;52.58
67015;BME280;1033;52.560;13.374;2024-03-29T09:53:34;99502.16;;;14.37;52.18
67015;BME280;1033;52.560;13.374;2024-03-29T09:56:03;99506.19;;;14.71;51.31
67015;BME280;1033;52.560;13.374;2024-03-29T09:58:33;99497.34;;;14.91;51.01
67015;BME280;1033;52.560;13.374;2024-03-29T10:01:02;99500.34;;;14.94;49.59
67015;BME280;1033;52.560;13.374;2024-03-29T10:03:31;99498.69;;;14.46;49.35
67015;BME280;1033;52.560;13.374;2024-03-29T10:05:59;99491.56;;;14.40;49.09
67015;BME280;1033;52.560;13.374;2024-03-29T10:08:28;99499.16;;;14.11;50.04
67015;BME280;1033;52.560;13.374;2024-03-29T10:10:57;99487.81;;;14.19;50.44
67015;BME280;1033;52.560;13.374;2024-03-29T10:13:25;99488.53;;;14.37;50.14
67015;BME280;1033;52.560;13.374;2024-03-29T10:15:56;99490.16;;;14.06;50.78
67015;BME280;1033;52.560;13.374;2024-03-29T10:18:24;99489.66;;;14.14;51.12
67015;BME280;1033;52.560;13.374;2024-03-29T10:20:59;99484.75;;;14.11;52.03
67015;BME280;1033;52.560;13.374;2024-03-29T10:23:27;99484.50;;;13.85;54.42
67015;BME280;1033;52.560;13.374;2024-03-29T10:25:56;99467.44;;;13.63;56.18
67015;BME280;1033;52.560;13.374;2024-03-29T10:28:31;99459.84;;;13.38;58.15
67015;BME280;1033;52.560;13.374;2024-03-29T10:31:02;99459.13;;;13.48;58.78
67015;BME280;1033;52.560;13.374;2024-03-29T10:33:31;99464.03;;;13.24;59.37
67015;BME280;1033;52.560;13.374;2024-03-29T10:36:00;99453.41;;;13.23;60.11
67015;BME280;1033;52.560;13.374;2024-03-29T10:38:32;99455.69;;;13.31;60.71
67015;BME280;1033;52.560;13.374;2024-03-29T10:41:01;99442.47;;;13.39;61.26
67015;BME280;1033;52.560;13.374;2024-03-29T10:43:30;99443.19;;;13.30;61.05
67015;BME280;1033;52.560;13.374;2024-03-29T10:46:01;99449.88;;;13.22;61.76
67015;BME280;1033;52.560;13.374;2024-03-29T10:48:31;99452.38;;;13.07;61.80
67015;BME280;1033;52.560;13.374;2024-03-29T10:50:59;99448.75;;;13.18;63.21
67015;BME280;1033;52.560;13.374;2024-03-29T10:53:28;99460.31;;;13.30;63.75
67015;BME280;1033;52.560;13.374;2024-03-29T10:55:58;99457.47;;;13.20;65.31
67015;BME280;1033;52.560;13.374;2024-03-29T10:58:30;99446.06;;;13.45;66.16
67015;BME280;1033;52.560;13.374;2024-03-29T11:01:04;99446.00;;;13.67;65.79
67015;BME280;1033;52.560;13.374;2024-03-29T11:03:35;99439.16;;;13.91;65.25
67015;BME280;1033;52.560;13.374;2024-03-29T11:06:05;99434.16;;;13.78;64.31
67015;BME280;1033;52.560;13.374;2024-03-29T11:08:34;99428.25;;;13.86;63.63
67015;BME280;1033;52.560;13.374;2024-03-29T11:11:05;99418.28;;;13.97;62.94
67015;BME280;1033;52.560;13.374;2024-03-29T11:13:37;99426.56;;;14.12;62.93
67015;BME280;1033;52.560;13.374;2024-03-29T11:16:08;99412.28;;;14.31;62.29
67015;BME280;1033;52.560;13.374;2024-03-29T11:18:36;99400.38;;;14.43;61.89
67015;BME280;1033;52.560;13.374;2024-03-29T11:21:05;99407.59;;;14.64;62.01
67015;BME280;1033;52.560;13.374;2024-03-29T11:23:36;99393.50;;;14.35;60.55
67015;BME280;1033;52.560;13.374;2024-03-29T11:26:04;99393.06;;;14.48;60.37
67015;BME280;1033;52.560;13.374;2024-03-29T11:28:33;99380.69;;;14.30;60.27
67015;BME280;1033;52.560;13.374;2024-03-29T11:31:03;99376.88;;;14.26;61.02
67015;BME280;1033;52.560;13.374;2024-03-29T11:33:34;99369.81;;;14.30;60.92
67015;BME280;1033;52.560;13.374;2024-03-29T11:36:10;99372.38;;;14.42;61.17
67015;BME280;1033;52.560;13.374;2024-03-29T11:38:39;99377.88;;;14.57;60.41
67015;BME280;1033;52.560;13.374;2024-03-29T11:41:12;99376.00;;;14.63;60.11
67015;BME280;1033;52.560;13.374;2024-03-29T11:43:42;99377.66;;;14.64;60.38
67015;BME280;1033;52.560;13.374;2024-03-29T11:46:11;99367.88;;;14.73;60.40
67015;BME280;1033;52.560;13.374;2024-03-29T11:48:40;99360.94;;;15.12;58.90
67015;BME280;1033;52.560;13.374;2024-03-29T11:51:11;99371.75;;;14.87;58.85
67015;BME280;1033;52.560;13.374;2024-03-29T11:53:41;99381.56;;;14.88;59.65
67015;BME280;1033;52.560;13.374;2024-03-29T11:56:10;99372.53;;;14.77;59.66
67015;BME280;1033;52.560;13.374;2024-03-29T11:58:38;99384.81;;;14.80;59.19
67015;BME280;1033;52.560;13.374;2024-03-29T12:01:06;99382.16;;;14.95;58.58
67015;BME280;1033;52.560;13.374;2024-03-29T12:03:40;99386.75;;;14.90;58.38
67015;BME280;1033;52.560;13.374;2024-03-29T12:06:09;99376.69;;;14.95;58.81
67015;BME280;1033;52.560;13.374;2024-03-29T12:08:39;99380.22;;;14.91;61.18
67015;BME280;1033;52.560;13.374;2024-03-29T12:11:09;99390.56;;;14.94;61.44
67015;BME280;1033;52.560;13.374;2024-03-29T12:13:37;99386.66;;;14.22;61.83
67015;BME280;1033;52.560;13.374;2024-03-29T12:16:07;99382.28;;;14.21;63.67
67015;BME280;1033;52.560;13.374;2024-03-29T12:18:35;99389.00;;;14.14;62.54
67015;BME280;1033;52.560;13.374;2024-03-29T12:21:04;99380.63;;;14.20;61.94
67015;BME280;1033;52.560;13.374;2024-03-29T12:23:32;99385.78;;;14.17;64.14
67015;BME280;1033;52.560;13.374;2024-03-29T12:26:00;99382.78;;;14.13;63.55
67015;BME280;1033;52.560;13.374;2024-03-29T12:28:28;99378.41;;;14.12;63.65
67015;BME280;1033;52.560;13.374;2024-03-29T12:31:00;99380.53;;;14.42;63.42
67015;BME280;1033;52.560;13.374;2024-03-29T12:33:28;99370.03;;;14.66;62.39
67015;BME280;1033;52.560;13.374;2024-03-29T12:35:58;99345.63;;;14.86;61.26
67015;BME280;1033;52.560;13.374;2024-03-29T12:38:27;99348.13;;;15.13;59.23
67015;BME280;1033;52.560;13.374;2024-03-29T12:40:57;99351.97;;;15.22;56.09
67015;BME280;1033;52.560;13.374;2024-03-29T12:43:26;99349.59;;;15.76;55.10
67015;BME280;1033;52.560;13.374;2024-03-29T12:45:53;99338.94;;;16.00;54.34
67015;BME280;1033;52.560;13.374;2024-03-29T12:48:22;99345.66;;;16.43;51.98
67015;BME280;1033;52.560;13.374;2024-03-29T12:50:51;99328.75;;;16.36;51.34
67015;BME280;1033;52.560;13.374;2024-03-29T12:53:20;99344.53;;;16.64;50.30
67015;BME280;1033;52.560;13.374;2024-03-29T12:55:49;99350.00;;;16.64;49.49
67015;BME280;1033;52.560;13.374;2024-03-29T12:58:18;99360.88;;;16.74;49.12
67015;BME280;1033;52.560;13.374;2024-03-29T13:00:48;99370.75;;;16.50;48.85
67015;BME280;1033;52.560;13.374;2024-03-29T13:03:16;99351.09;;;16.58;49.22
67015;BME280;1033;52.560;13.374;2024-03-29T13:05:44;99346.66;;;16.72;48.79
67015;BME280;1033;52.560;13.374;2024-03-29T13:08:13;99353.81;;;16.53;48.57
67015;BME280;1033;52.560;13.374;2024-03-29T13:10:42;99349.25;;;16.18;48.79
67015;BME280;1033;52.560;13.374;2024-03-29T13:13:12;99361.81;;;16.29;48.74